createdAt,value
2022-12-20T00:02:08.388Z,99221.03
2022-12-20T00:05:14.796Z,99230.56
2022-12-20T00:08:20.738Z,99230.53
2022-12-20T00:11:28.177Z,99223.63
2022-12-20T00:14:36.515Z,99226.25
2022-12-20T00:17:43.032Z,99221.94
2022-12-20T00:20:48.532Z,99217.56
2022-12-20T00:23:55.974Z,99186.59
2022-12-20T00:27:01.343Z,99218.34
2022-12-20T00:30:12.233Z,99211.47
2022-12-20T00:33:17.817Z,99215.72
2022-12-20T00:36:27.367Z,99203.63
2022-12-20T00:39:32.757Z,99204.56
2022-12-20T00:42:38.992Z,99202.00
2022-12-20T00:45:47.329Z,99207.91
2022-12-20T00:48:54.214Z,99201.81
2022-12-20T00:51:59.644Z,99200.16
2022-12-20T00:55:05.932Z,99193.22
2022-12-20T00:58:11.379Z,99181.00
2022-12-20T01:01:27.321Z,99168.88
2022-12-20T01:04:32.856Z,99160.28
2022-12-20T01:07:39.508Z,99170.63
2022-12-20T01:10:45.067Z,99191.47
2022-12-20T01:13:56.274Z,99219.13
2022-12-20T01:17:04.547Z,99195.06
2022-12-20T01:20:12.225Z,99207.06
2022-12-20T01:23:17.668Z,99196.72
2022-12-20T01:26:27.495Z,99200.97
2022-12-20T01:29:32.958Z,99187.19
2022-12-20T01:32:42.004Z,99185.50
2022-12-20T01:35:59.587Z,99172.66
2022-12-20T01:39:09.110Z,99177.88
2022-12-20T01:42:18.720Z,99183.03
2022-12-20T01:45:32.876Z,99165.81
2022-12-20T01:48:41.694Z,99153.66
2022-12-20T01:51:55.213Z,99157.06
2022-12-20T01:55:11.916Z,99144.16
2022-12-20T01:58:23.037Z,99150.19
2022-12-20T02:01:28.948Z,99112.44
2022-12-20T02:04:38.589Z,99151.78
2022-12-20T02:07:49.484Z,99149.25
2022-12-20T02:11:24.535Z,99156.94
2022-12-20T02:15:00.702Z,99126.06
2022-12-20T02:18:24.530Z,99172.38
2022-12-20T02:21:45.372Z,99163.78
2022-12-20T02:25:46.254Z,99163.78
2022-12-20T02:29:24.452Z,99112.22
2022-12-20T02:32:47.995Z,99137.88
2022-12-20T02:35:54.237Z,99129.19
2022-12-20T02:38:59.652Z,99115.41
2022-12-20T02:42:12.370Z,99132.91
2022-12-20T02:45:17.621Z,99149.31
2022-12-20T02:48:35.263Z,99143.34
2022-12-20T02:51:45.475Z,99145.94
2022-12-20T02:54:52.617Z,99143.50
2022-12-20T02:58:08.488Z,99129.72
2022-12-20T03:01:24.620Z,99133.13
2022-12-20T03:04:43.729Z,99120.16
2022-12-20T03:07:52.291Z,99101.22
2022-12-20T03:11:00.437Z,99097.75
2022-12-20T03:14:07.978Z,99128.91
2022-12-20T03:17:14.819Z,99120.22
2022-12-20T03:20:25.243Z,99125.38
2022-12-20T03:23:30.745Z,99122.81
2022-12-20T03:26:37.284Z,99130.53
2022-12-20T03:29:43.000Z,99114.06
2022-12-20T03:32:49.464Z,99102.84
2022-12-20T03:35:58.158Z,99104.56
2022-12-20T03:39:04.713Z,99100.34
2022-12-20T03:42:14.231Z,99102.91
2022-12-20T03:45:21.104Z,99104.69
2022-12-20T03:48:27.457Z,99112.41
2022-12-20T03:51:36.499Z,99103.81
2022-12-20T03:54:42.287Z,99100.34
2022-12-20T03:57:58.470Z,99110.72
2022-12-20T04:01:24.976Z,99115.84
2022-12-20T04:04:33.350Z,99106.38
2022-12-20T04:07:42.444Z,99112.50
2022-12-20T04:11:04.603Z,99099.53
2022-12-20T04:14:13.352Z,99108.94
2022-12-20T04:17:19.641Z,99107.19
2022-12-20T04:20:26.507Z,99112.31
2022-12-20T04:23:53.001Z,99104.53
2022-12-20T04:26:58.376Z,99112.41
2022-12-20T04:30:04.679Z,99101.97
2022-12-20T04:33:10.921Z,99107.16
2022-12-20T04:36:18.524Z,99109.75
2022-12-20T04:39:26.988Z,99112.34
2022-12-20T04:42:52.029Z,99123.56
2022-12-20T04:45:59.804Z,99108.97
2022-12-20T04:49:08.336Z,99121.88
2022-12-20T04:52:33.960Z,99114.84
2022-12-20T04:55:44.350Z,99114.84
2022-12-20T04:58:53.192Z,99095.91
2022-12-20T05:01:59.555Z,99113.94
2022-12-20T05:05:22.389Z,99109.69
2022-12-20T05:08:32.615Z,99090.69
2022-12-20T05:11:41.381Z,99083.78
2022-12-20T05:14:48.572Z,99088.22
2022-12-20T05:17:59.655Z,99094.19
2022-12-20T05:21:28.477Z,99080.34
2022-12-20T05:24:49.821Z,99075.28
2022-12-20T05:28:11.102Z,99086.47
2022-12-20T05:31:16.754Z,99076.22
2022-12-20T05:34:23.509Z,99076.38
2022-12-20T05:37:31.947Z,99076.44
2022-12-20T05:40:50.231Z,99074.72
2022-12-20T05:43:59.127Z,99080.78
2022-12-20T05:47:06.769Z,99070.59
2022-12-20T05:50:19.153Z,99073.03
2022-12-20T05:53:44.947Z,99068.69
2022-12-20T05:56:52.793Z,99065.22
2022-12-20T06:00:09.961Z,99048.94
2022-12-20T06:03:22.674Z,99066.97
2022-12-20T06:06:29.904Z,99052.28
2022-12-20T06:09:36.729Z,98963.31
2022-12-20T06:12:50.220Z,99048.00
2022-12-20T06:16:00.689Z,99058.41
2022-12-20T06:19:07.467Z,99050.59
2022-12-20T06:22:14.697Z,99045.41
2022-12-20T06:25:24.405Z,99046.22
2022-12-20T06:28:31.181Z,99054.00
2022-12-20T06:31:40.733Z,99054.06
2022-12-20T06:34:46.244Z,99069.63
2022-12-20T06:37:52.467Z,99060.22
2022-12-20T06:40:58.080Z,99067.09
2022-12-20T06:44:04.775Z,99036.13
2022-12-20T06:47:13.593Z,99042.19
2022-12-20T06:50:19.956Z,99051.69
2022-12-20T06:53:25.673Z,99052.41
2022-12-20T06:56:34.812Z,99044.88
2022-12-20T06:59:48.158Z,99052.75
2022-12-20T07:02:57.724Z,99057.06
2022-12-20T07:06:03.546Z,99061.59
2022-12-20T07:09:10.325Z,99069.34
2022-12-20T07:12:16.836Z,99060.78
2022-12-20T07:15:23.032Z,99084.97
2022-12-20T07:18:31.600Z,99079.84
2022-12-20T07:21:38.691Z,99067.72
2022-12-20T07:24:44.168Z,99076.25
2022-12-20T07:27:51.775Z,99060.91
2022-12-20T07:30:58.096Z,99072.88
2022-12-20T07:34:07.083Z,99070.19
2022-12-20T07:37:12.553Z,99074.63
2022-12-20T07:40:19.205Z,99062.53
2022-12-20T07:43:25.433Z,99052.97
2022-12-20T07:46:32.903Z,99058.97
2022-12-20T07:49:41.302Z,99048.59
2022-12-20T07:52:52.801Z,99002.13
2022-12-20T07:56:01.030Z,99046.66
2022-12-20T07:59:08.035Z,99046.63
2022-12-20T08:02:21.727Z,99043.09
2022-12-20T08:05:31.855Z,99041.31
2022-12-20T08:08:47.233Z,99030.97
2022-12-20T08:11:55.037Z,99038.53
2022-12-20T08:15:01.490Z,99042.75
2022-12-20T08:18:08.529Z,99034.06
2022-12-20T08:21:16.787Z,99044.44
2022-12-20T08:24:23.313Z,99039.38
2022-12-20T08:27:28.871Z,99037.47
2022-12-20T08:30:35.176Z,99043.44
2022-12-20T08:33:42.959Z,99051.13
2022-12-20T08:36:52.740Z,99053.56
2022-12-20T08:39:58.096Z,99048.41
2022-12-20T08:43:10.013Z,99056.78
2022-12-20T08:46:16.794Z,99048.91
2022-12-20T08:49:23.307Z,99040.13
2022-12-20T08:52:31.984Z,99041.75
2022-12-20T08:55:38.273Z,99029.44
2022-12-20T08:58:44.985Z,99032.91
2022-12-20T09:01:51.491Z,99040.72
2022-12-20T09:04:56.989Z,99044.78
2022-12-20T09:08:06.039Z,99034.41
2022-12-20T09:11:15.043Z,99021.38
2022-12-20T09:14:22.946Z,99028.19
2022-12-20T09:17:28.324Z,99021.03
2022-12-20T09:20:35.797Z,99009.31
2022-12-20T09:23:44.818Z,99020.19
2022-12-20T09:26:52.287Z,99010.00
2022-12-20T09:29:57.706Z,99007.31
2022-12-20T09:33:08.352Z,99020.44
2022-12-20T09:36:20.427Z,99036.63
2022-12-20T09:39:29.716Z,99029.00
2022-12-20T09:42:35.691Z,99018.53
2022-12-20T09:45:42.512Z,99013.41
2022-12-20T09:48:51.175Z,98997.75
2022-12-20T09:52:30.930Z,98996.59
2022-12-20T09:55:50.213Z,98975.72
2022-12-20T09:59:07.545Z,98965.97
2022-12-20T10:02:55.256Z,98958.69
2022-12-20T10:05:56.614Z,98963.78
2022-12-20T10:09:14.660Z,98964.53
2022-12-20T10:12:45.571Z,98968.09
2022-12-20T10:16:01.668Z,98979.66
2022-12-20T10:19:39.965Z,98972.69
2022-12-20T10:22:56.095Z,98963.41
2022-12-20T10:26:02.433Z,98951.19
2022-12-20T10:29:10.749Z,98957.53
2022-12-20T10:32:21.352Z,98950.81
2022-12-20T10:35:33.316Z,98947.47
2022-12-20T10:38:49.573Z,98899.56
2022-12-20T10:41:55.692Z,98955.84
2022-12-20T10:45:06.700Z,98936.66
2022-12-20T10:48:33.320Z,98935.81
2022-12-20T10:51:39.565Z,98940.03
2022-12-20T10:54:47.989Z,98928.13
2022-12-20T10:57:54.499Z,98931.25
2022-12-20T11:01:18.455Z,98931.28
2022-12-20T11:04:32.771Z,98904.16
2022-12-20T11:07:38.996Z,98906.69
2022-12-20T11:10:45.925Z,98900.72
2022-12-20T11:13:54.800Z,98899.69
2022-12-20T11:17:22.708Z,98860.56
2022-12-20T11:20:43.991Z,98860.34
2022-12-20T11:24:05.610Z,98866.22
2022-12-20T11:27:27.494Z,98870.66
2022-12-20T11:30:51.473Z,98866.81
2022-12-20T11:34:19.882Z,98873.53
2022-12-20T11:37:29.563Z,98869.03
2022-12-20T11:40:45.683Z,98866.84
2022-12-20T11:44:25.259Z,98866.84
2022-12-20T11:48:10.001Z,98857.84
2022-12-20T11:51:28.021Z,98854.63
2022-12-20T11:54:44.996Z,98867.69
2022-12-20T11:58:18.666Z,98871.91
2022-12-20T12:01:34.670Z,98855.63
2022-12-20T12:04:51.530Z,98861.63
2022-12-20T12:08:14.849Z,98866.00
2022-12-20T12:12:05.326Z,98863.97
2022-12-20T12:15:14.330Z,98871.56
2022-12-20T12:18:28.280Z,98826.16
2022-12-20T12:21:44.501Z,98856.06
2022-12-20T12:25:03.141Z,98868.28
2022-12-20T12:28:09.525Z,98863.53
2022-12-20T12:31:27.390Z,98844.53
2022-12-20T12:35:03.802Z,98854.63
2022-12-20T12:39:02.417Z,98845.13
2022-12-20T12:42:45.124Z,98833.03
2022-12-20T12:45:58.907Z,98836.09
2022-12-20T12:49:14.985Z,98841.63
2022-12-20T12:52:47.125Z,98843.22
2022-12-20T12:56:12.919Z,98826.84
2022-12-20T12:59:48.779Z,98821.84
2022-12-20T13:02:55.419Z,98823.50
2022-12-20T13:06:01.783Z,98823.75
2022-12-20T13:09:25.462Z,98833.94
2022-12-20T13:13:02.116Z,98820.84
2022-12-20T13:17:10.158Z,98825.41
2022-12-20T13:20:00.655Z,98818.09
2022-12-20T13:23:20.269Z,98798.03
2022-12-20T13:26:53.823Z,98813.78
2022-12-20T13:30:30.788Z,98831.28
2022-12-20T13:33:49.215Z,98826.75
2022-12-20T13:37:02.786Z,98821.53
2022-12-20T13:40:42.840Z,98839.88
2022-12-20T13:43:53.112Z,98836.13
2022-12-20T13:47:10.992Z,98840.47
2022-12-20T13:50:36.015Z,98836.09
2022-12-20T13:53:52.684Z,98834.63
2022-12-20T13:56:59.696Z,98834.63
2022-12-20T14:00:18.018Z,98835.50
2022-12-20T14:03:28.591Z,98832.09
2022-12-20T14:06:39.004Z,98823.72
2022-12-20T14:09:49.824Z,98817.81
2022-12-20T14:12:59.526Z,98801.59
2022-12-20T14:16:13.545Z,98818.00
2022-12-20T14:19:19.904Z,98821.81
2022-12-20T14:22:29.554Z,98819.06
2022-12-20T14:25:45.558Z,98814.78
2022-12-20T14:28:55.414Z,98818.25
2022-12-20T14:32:01.701Z,98840.66
2022-12-20T14:35:07.991Z,98830.34
2022-12-20T14:38:31.957Z,98837.16
2022-12-20T14:41:41.356Z,98835.41
2022-12-20T14:44:47.677Z,98842.50
2022-12-20T14:48:09.531Z,98822.47
2022-12-20T14:51:22.552Z,98825.09
2022-12-20T14:55:06.409Z,98828.44
2022-12-20T14:58:01.158Z,98806.09
2022-12-20T15:01:23.908Z,98794.16
2022-12-20T15:04:37.669Z,98807.88
2022-12-20T15:07:44.695Z,98807.81
2022-12-20T15:11:00.548Z,98799.28
2022-12-20T15:14:15.968Z,98808.81
2022-12-20T15:17:22.285Z,98807.88
2022-12-20T15:20:27.712Z,98810.41
2022-12-20T15:23:35.436Z,98816.22
2022-12-20T15:26:44.288Z,98789.03
2022-12-20T15:29:50.626Z,98815.25
2022-12-20T15:32:56.239Z,98821.09
2022-12-20T15:36:02.799Z,98810.66
2022-12-20T15:39:13.026Z,98812.28
2022-12-20T15:42:25.894Z,98805.53
2022-12-20T15:45:31.324Z,98800.63
2022-12-20T15:48:37.673Z,98794.75
2022-12-20T15:51:44.436Z,98792.22
2022-12-20T15:54:50.841Z,98794.81
2022-12-20T15:57:59.064Z,98774.94
2022-12-20T16:01:05.544Z,98781.84
2022-12-20T16:04:18.533Z,98772.56
2022-12-20T16:07:25.565Z,98783.78
2022-12-20T16:10:31.533Z,98787.41
2022-12-20T16:13:41.076Z,98783.09
2022-12-20T16:16:50.296Z,98774.56
2022-12-20T16:19:57.023Z,98772.25
2022-12-20T16:23:03.676Z,98781.84
2022-12-20T16:26:09.982Z,98786.25
2022-12-20T16:29:18.563Z,98765.69
2022-12-20T16:32:25.213Z,98770.72
2022-12-20T16:35:36.768Z,98760.22
2022-12-20T16:38:43.100Z,98772.41
2022-12-20T16:41:48.521Z,98767.31
2022-12-20T16:44:57.928Z,98775.91
2022-12-20T16:48:03.361Z,98771.91
2022-12-20T16:51:27.908Z,98758.84
2022-12-20T16:54:33.754Z,98776.00
2022-12-20T16:57:40.002Z,98779.53
2022-12-20T17:00:48.400Z,98773.44
2022-12-20T17:03:57.945Z,98767.38
2022-12-20T17:07:03.375Z,98754.22
2022-12-20T17:10:10.972Z,98755.03
2022-12-20T17:13:16.562Z,98751.56
2022-12-20T17:16:26.675Z,98763.66
2022-12-20T17:19:32.429Z,98762.91
2022-12-20T17:26:02.204Z,98752.69
2022-12-20T17:29:08.500Z,98757.88
2022-12-20T17:32:24.612Z,98770.94
2022-12-20T17:35:36.070Z,98781.19
2022-12-20T17:38:41.536Z,98776.94
2022-12-20T17:41:49.964Z,98745.25
2022-12-20T17:44:55.422Z,98749.47
2022-12-20T17:48:04.615Z,98727.69
2022-12-20T17:51:20.491Z,98737.91
2022-12-20T17:54:38.531Z,98727.56
2022-12-20T17:57:44.877Z,98744.63
2022-12-20T18:00:51.408Z,98738.72
2022-12-20T18:04:05.012Z,98748.34
2022-12-20T18:07:12.369Z,98746.69
2022-12-20T18:10:17.908Z,98736.28
2022-12-20T18:13:24.485Z,98726.03
2022-12-20T18:16:33.038Z,98720.75
2022-12-20T18:19:44.062Z,98725.81
2022-12-20T18:22:49.516Z,98720.53
2022-12-20T18:25:55.748Z,98708.50
2022-12-20T18:29:05.372Z,98697.38
2022-12-20T18:32:12.830Z,98700.72
2022-12-20T18:35:22.000Z,98693.00
2022-12-20T18:38:28.253Z,98696.63
2022-12-20T18:41:34.760Z,98702.63
2022-12-20T18:44:41.259Z,98708.66
2022-12-20T18:47:46.863Z,98698.50
2022-12-20T18:50:55.864Z,98687.44
2022-12-20T18:54:03.460Z,98700.50
2022-12-20T18:57:09.785Z,98710.97
2022-12-20T19:00:17.617Z,98710.16
2022-12-20T19:03:24.037Z,98719.59
2022-12-20T19:06:34.564Z,98711.13
2022-12-20T19:09:40.949Z,98699.75
2022-12-20T19:12:46.650Z,98698.13
2022-12-20T19:15:52.972Z,98699.09
2022-12-20T19:18:58.793Z,98685.28
2022-12-20T19:22:07.846Z,98681.88
2022-12-20T19:25:13.475Z,98673.09
2022-12-20T19:28:20.343Z,98674.94
2022-12-20T19:31:28.842Z,98662.00
2022-12-20T19:34:35.207Z,98662.03
2022-12-20T19:37:43.408Z,98660.19
2022-12-20T19:40:56.171Z,98659.34
2022-12-20T19:44:03.177Z,98663.66
2022-12-20T19:47:09.580Z,98662.63
2022-12-20T19:50:15.265Z,98657.44
2022-12-20T19:53:24.283Z,98664.31
2022-12-20T19:56:34.571Z,98656.53
2022-12-20T19:59:40.835Z,98653.91
2022-12-20T20:02:46.711Z,98660.84
2022-12-20T20:05:53.383Z,98662.53
2022-12-20T20:09:02.615Z,98660.03
2022-12-20T20:12:09.503Z,98656.53
2022-12-20T20:15:14.968Z,98657.44
2022-12-20T20:18:22.206Z,98644.66
2022-12-20T20:21:27.672Z,98652.53
2022-12-20T20:24:36.796Z,98657.75
2022-12-20T20:27:42.242Z,98662.09
2022-12-20T20:30:51.145Z,98656.06
2022-12-20T20:33:56.597Z,98642.09
2022-12-20T20:37:02.967Z,98649.75
2022-12-20T20:40:13.166Z,98652.19
2022-12-20T20:43:20.522Z,98633.13
2022-12-20T20:46:26.113Z,98627.00
2022-12-20T20:49:32.378Z,98631.25
2022-12-20T20:52:37.824Z,98624.41
2022-12-20T20:55:46.985Z,98629.72
2022-12-20T20:58:55.270Z,98629.66
2022-12-20T21:02:04.068Z,98632.91
2022-12-20T21:06:06.210Z,98628.50
2022-12-20T21:08:37.013Z,98622.44
2022-12-20T21:11:45.576Z,98611.97
2022-12-20T21:15:21.164Z,98616.31
2022-12-20T21:18:17.923Z,98599.81
2022-12-20T21:21:25.716Z,98601.38
2022-12-20T21:24:31.156Z,98596.88
2022-12-20T21:27:40.929Z,98582.91
2022-12-20T21:30:46.531Z,98588.91
2022-12-20T21:33:52.921Z,98582.72
2022-12-20T21:36:58.542Z,98573.47
2022-12-20T21:40:04.871Z,98565.72
2022-12-20T21:43:13.246Z,98559.56
2022-12-20T21:46:19.576Z,98561.34
2022-12-20T21:49:25.832Z,98574.34
2022-12-20T21:52:33.058Z,98576.25
2022-12-20T21:55:38.481Z,98566.88
2022-12-20T21:58:48.685Z,98552.25
2022-12-20T22:01:54.575Z,98552.94
2022-12-20T22:05:01.238Z,98551.13
2022-12-20T22:08:06.963Z,98544.00
2022-12-20T22:11:16.512Z,98543.78
2022-12-20T22:14:24.691Z,98541.28
2022-12-20T22:17:31.321Z,98540.31
2022-12-20T22:20:37.115Z,98543.00
2022-12-20T22:23:45.175Z,98540.41
2022-12-20T22:26:50.681Z,98531.66
2022-12-20T22:29:59.972Z,98532.44
2022-12-20T22:33:05.453Z,98526.25
2022-12-20T22:36:15.670Z,98522.81
2022-12-20T22:39:21.379Z,98518.41
2022-12-20T22:42:27.745Z,98515.81
2022-12-20T22:45:36.086Z,98512.56
2022-12-20T22:48:43.940Z,98501.47
2022-12-20T22:52:02.755Z,98492.03
2022-12-20T22:55:13.566Z,98485.91
2022-12-20T22:58:18.946Z,98466.78
2022-12-20T23:01:28.415Z,98476.25
2022-12-20T23:04:34.081Z,98471.16
2022-12-20T23:07:40.318Z,98466.81
2022-12-20T23:11:01.449Z,98459.06
2022-12-20T23:14:29.606Z,98431.78
2022-12-20T23:17:38.459Z,98460.78
2022-12-20T23:21:00.465Z,98465.97
2022-12-20T23:24:06.497Z,98467.41
2022-12-20T23:27:12.761Z,98458.94
2022-12-20T23:30:22.671Z,98441.75
2022-12-20T23:33:31.697Z,98427.88
2022-12-20T23:36:37.471Z,98439.16
2022-12-20T23:39:43.693Z,98418.41
2022-12-20T23:42:49.062Z,98429.66
2022-12-20T23:45:55.292Z,98441.06
2022-12-20T23:49:03.523Z,98440.34
2022-12-20T23:52:09.803Z,98461.88
2022-12-20T23:55:15.544Z,98446.41
2022-12-20T23:58:21.751Z,98450.56
